Time;durP1;ratioP1;P1;durP2;ratioP2;P2;SDS_P1;SDS_P2;PMS_P1;PMS_P2;Temp;Humidity;BMP_temperature;BMP_pressure;BME280_temperature;BME280_humidity;BME280_pressure;Samples;Min_cycle;Max_cycle;Signal;HPM_P1;HPM_P2
2023/05/29 00:02:29;;;;;;;12.20;6.17;;;;;;;12.37;89.04;102081.91;5261840;28;20037;-69
2023/05/29 00:05:02;;;;;;;13.23;6.77;;;;;;;12.22;88.85;102080.16;5262557;28;20035;-68
2023/05/29 00:07:34;;;;;;;14.70;6.40;;;;;;;12.27;89.44;102077.53;5262933;28;20040;-68
2023/05/29 00:10:07;;;;;;;15.47;5.63;;;;;;;12.04;89.55;102087.94;5262867;28;20472;-67
2023/05/29 00:12:38;;;;;;;;;;;;;;;12.12;88.13;102088.84;5262992;28;20033;-68
2023/05/29 00:15:10;;;;;;;14.35;6.53;;;;;;;12.12;89.41;102090.59;5262862;28;20344;-68
2023/05/29 00:17:43;;;;;;;19.70;7.00;;;;;;;11.81;89.22;102085.25;5262286;28;20060;-67
2023/05/29 00:20:14;;;;;;;15.18;6.85;;;;;;;11.73;89.62;102079.13;5261420;28;20052;-68
2023/05/29 00:22:45;;;;;;;18.23;5.50;;;;;;;11.66;88.88;102094.78;5262440;28;20452;-67
2023/05/29 00:25:18;;;;;;;20.47;6.40;;;;;;;11.74;88.48;102097.44;5262333;28;20488;-67
2023/05/29 00:27:49;;;;;;;19.10;5.88;;;;;;;11.60;87.99;102094.75;5262588;28;20448;-67
2023/05/29 00:30:20;;;;;;;16.73;6.27;;;;;;;11.55;87.98;102099.09;5262471;28;20072;-67
2023/05/29 00:32:52;;;;;;;14.63;4.93;;;;;;;11.52;88.13;102104.31;5262382;28;20025;-67
2023/05/29 00:35:23;;;;;;;19.97;7.00;;;;;;;11.36;88.77;102103.34;5261611;28;20033;-67
2023/05/29 00:37:54;;;;;;;15.47;6.40;;;;;;;11.35;88.29;102106.84;5262419;28;20071;-67
2023/05/29 00:40:26;;;;;;;15.53;5.83;;;;;;;11.24;89.21;102106.78;5262800;28;20025;-68
2023/05/29 00:42:57;;;;;;;19.77;5.87;;;;;;;11.29;89.12;102114.66;5262616;28;20037;-68
2023/05/29 00:45:30;;;;;;;19.87;6.63;;;;;;;11.22;88.55;102116.34;5262346;28;20036;-68
2023/05/29 00:48:02;;;;;;;;;;;;;;;11.31;87.44;102110.28;5262556;28;20120;-67
2023/05/29 00:50:34;;;;;;;17.70;6.03;;;;;;;11.19;87.28;102111.09;5262107;28;19912;-68
2023/05/29 00:53:06;;;;;;;22.23;5.80;;;;;;;11.15;86.71;102119.78;5262205;28;20029;-68
2023/05/29 00:55:37;;;;;;;18.92;6.18;;;;;;;11.01;86.40;102113.59;5263554;28;20036;-68
2023/05/29 00:58:09;;;;;;;17.80;4.97;;;;;;;10.92;86.28;102120.50;5266591;28;20521;-68
2023/05/29 01:00:40;;;;;;;17.53;5.97;;;;;;;10.87;86.08;102118.72;5266494;28;20079;-68
2023/05/29 01:03:14;;;;;;;18.13;6.17;;;;;;;10.82;85.94;102123.00;5266438;28;20041;-68
2023/05/29 01:05:48;;;;;;;23.15;5.82;;;;;;;10.79;85.60;102125.59;5265779;28;20025;-67
2023/05/29 01:08:20;;;;;;;16.65;5.53;;;;;;;10.73;85.65;102118.59;5265890;28;20056;-67
2023/05/29 01:10:56;;;;;;;21.83;6.17;;;;;;;10.66;85.48;102124.63;5265641;28;20074;-68
2023/05/29 01:13:31;;;;;;;20.90;5.05;;;;;;;10.65;85.74;102130.72;5265851;28;20033;-68
2023/05/29 01:16:20;;;;;;;15.98;4.90;;;;;;;10.64;85.58;102136.78;5265652;28;20114;-67
2023/05/29 01:19:18;;;;;;;19.27;5.65;;;;;;;10.62;85.67;102135.91;5266165;28;20051;-68
2023/05/29 01:22:06;;;;;;;19.15;5.38;;;;;;;10.58;85.38;102141.09;5266103;28;20522;-68
2023/05/29 01:24:50;;;;;;;13.15;4.53;;;;;;;10.49;85.62;102137.53;5266024;28;20025;-68
2023/05/29 01:27:25;;;;;;;18.10;5.47;;;;;;;10.45;85.95;102138.34;5266084;28;20033;-68
2023/05/29 01:29:58;;;;;;;18.70;4.30;;;;;;;10.39;85.98;102132.22;5264641;28;20036;-67
2023/05/29 01:32:30;;;;;;;21.92;5.95;;;;;;;10.37;86.35;102130.47;5264512;28;20040;-68
2023/05/29 01:35:02;;;;;;;19.85;5.78;;;;;;;10.30;86.43;102139.03;5265472;28;20385;-68
2023/05/29 01:37:33;;;;;;;19.23;4.70;;;;;;;10.28;86.71;102140.75;5264707;28;20487;-68
2023/05/29 01:40:05;;;;;;;20.30;4.87;;;;;;;10.30;86.62;102149.47;5265826;28;20047;-68
2023/05/29 01:42:37;;;;;;;16.48;5.40;;;;;;;10.19;87.08;102137.22;5262202;28;20086;-67
2023/05/29 01:45:09;;;;;;;17.37;5.77;;;;;;;10.15;87.23;102137.16;5264932;28;20025;-68
2023/05/29 01:47:41;;;;;;;18.52;4.32;;;;;;;10.19;87.29;102145.03;5264824;28;20531;-68
2023/05/29 01:50:15;;;;;;;18.90;5.17;;;;;;;10.06;87.31;102139.66;5253476;28;20038;-68
2023/05/29 01:52:47;;;;;;;17.40;6.30;;;;;;;10.01;87.50;102137.88;5248582;28;20421;-67
2023/05/29 01:55:18;;;;;;;20.47;5.43;;;;;;;10.01;87.73;102137.88;5264566;28;20138;-67
2023/05/29 01:57:50;;;;;;;20.10;5.43;;;;;;;9.94;88.22;102145.59;5263336;28;20045;-67
2023/05/29 02:00:22;;;;;;;16.95;5.20;;;;;;;9.89;88.14;102129.06;5265400;28;20064;-67
2023/05/29 02:02:53;;;;;;;21.02;5.53;;;;;;;9.89;88.22;102135.13;5263821;28;20033;-67
2023/05/29 02:05:25;;;;;;;16.37;5.83;;;;;;;9.95;88.74;102134.31;5264626;28;20033;-67
2023/05/29 02:07:56;;;;;;;24.63;5.23;;;;;;;10.01;88.95;102131.78;5265099;28;20489;-67
2023/05/29 02:10:27;;;;;;;14.97;4.83;;;;;;;9.85;88.56;102141.16;5263753;28;20025;-67
2023/05/29 02:12:59;;;;;;;19.70;4.33;;;;;;;9.73;88.79;102135.81;5264998;28;20037;-67
2023/05/29 02:15:30;;;;;;;17.27;4.80;;;;;;;9.98;89.49;102137.84;5264773;28;20025;-67
2023/05/29 02:18:02;;;;;;;16.13;5.33;;;;;;;9.75;88.92;102134.94;5263736;28;20077;-67
2023/05/29 02:20:33;;;;;;;15.07;4.80;;;;;;;9.73;89.55;102135.81;5264930;28;20063;-67
2023/05/29 02:23:04;;;;;;;16.40;4.80;;;;;;;9.62;89.28;102144.34;5264879;28;20557;-68
2023/05/29 02:25:36;;;;;;;18.90;5.13;;;;;;;9.61;89.30;102144.31;5264905;28;20044;-67
2023/05/29 02:28:07;;;;;;;15.67;4.63;;;;;;;9.77;89.50;102140.19;5263555;28;20412;-67
2023/05/29 02:30:39;;;;;;;19.37;5.93;;;;;;;9.58;89.31;102145.19;5264721;28;20032;-67
2023/05/29 02:33:10;;;;;;;17.03;5.53;;;;;;;9.49;89.34;102140.69;5264537;28;20086;-68
2023/05/29 02:35:42;;;;;;;17.93;4.73;;;;;;;9.51;89.95;102140.72;5264095;28;20029;-68
2023/05/29 02:38:13;;;;;;;23.17;6.20;;;;;;;9.54;89.55;102148.56;5264520;28;20056;-67
2023/05/29 02:40:45;;;;;;;17.77;4.60;;;;;;;9.48;89.36;102158.91;5264574;28;20037;-67
2023/05/29 02:43:16;;;;;;;19.33;4.57;;;;;;;9.42;89.50;102157.09;5264395;28;20384;-67
2023/05/29 02:45:47;;;;;;;17.33;6.37;;;;;;;9.37;90.13;102163.06;5264495;28;20124;-67
2023/05/29 02:48:19;;;;;;;20.50;4.97;;;;;;;9.30;90.44;102159.53;5296664;28;20037;-67
2023/05/29 02:50:50;;;;;;;14.73;5.27;;;;;;;9.23;90.92;102157.69;5264376;28;20037;-67
2023/05/29 02:53:21;;;;;;;17.67;5.20;;;;;;;9.14;91.38;102161.00;5264281;28;20112;-66
2023/05/29 02:55:53;;;;;;;18.33;6.53;;;;;;;9.17;91.46;102170.59;5262797;28;20116;-67
2023/05/29 02:58:24;;;;;;;21.70;4.83;;;;;;;9.09;91.55;102167.88;5264560;28;20037;-66
2023/05/29 03:00:55;;;;;;;19.10;5.03;;;;;;;9.15;91.81;102167.97;5264173;28;20113;-67
2023/05/29 03:03:27;;;;;;;17.53;5.43;;;;;;;9.07;91.81;102173.06;5264199;28;20059;-67
2023/05/29 03:05:58;;;;;;;14.70;4.60;;;;;;;9.03;91.71;102175.59;5263404;28;20064;-65
2023/05/29 03:08:33;;;;;;;23.33;4.87;;;;;;;8.96;92.25;102173.75;5264016;28;20029;-67
2023/05/29 03:11:05;;;;;;;16.85;4.68;;;;;;;8.92;92.27;102170.22;5263803;28;20062;-67
2023/05/29 03:13:37;;;;;;;15.20;4.17;;;;;;;8.88;92.88;102166.69;5262587;28;20060;-67
2023/05/29 03:16:08;;;;;;;20.40;5.85;;;;;;;8.98;93.00;102170.31;5262191;28;20390;-67
2023/05/29 03:18:41;;;;;;;19.43;5.63;;;;;;;8.86;92.93;102168.38;5263335;28;20175;-67
2023/05/29 03:21:12;;;;;;;25.02;5.70;;;;;;;8.82;93.05;102169.16;5263777;28;20103;-67
2023/05/29 03:23:44;;;;;;;26.07;4.67;;;;;;;8.79;93.02;102161.34;5263731;28;20120;-67
2023/05/29 03:26:15;;;;;;;16.10;4.10;;;;;;;8.85;93.43;102157.97;5263650;28;20083;-67
2023/05/29 03:28:46;;;;;;;16.47;4.73;;;;;;;8.78;93.16;102166.53;5263605;28;20056;-67
2023/05/29 03:31:18;;;;;;;16.00;4.37;;;;;;;8.76;93.73;102167.34;5263141;28;20196;-67
2023/05/29 03:33:49;;;;;;;20.03;5.33;;;;;;;8.69;93.68;102167.22;5263477;28;20469;-67
2023/05/29 03:36:22;;;;;;;18.63;6.13;;;;;;;8.72;94.08;102164.69;5262979;28;20421;-66
2023/05/29 03:38:53;;;;;;;18.80;5.20;;;;;;;8.68;94.21;102168.97;5263021;28;20065;-67
2023/05/29 03:41:25;;;;;;;22.00;4.90;;;;;;;8.63;94.97;102167.13;5262145;28;20478;-67
2023/05/29 03:43:56;;;;;;;22.33;4.50;;;;;;;8.66;94.93;102164.56;5263198;28;20388;-67
2023/05/29 03:46:28;;;;;;;26.17;5.97;;;;;;;8.67;95.08;102179.31;5295601;28;20029;-67
2023/05/29 03:48:59;;;;;;;27.20;4.60;;;;;;;8.63;95.45;102175.81;5263085;28;20060;-67
2023/05/29 03:51:30;;;;;;;21.57;5.20;;;;;;;8.63;95.42;102183.59;5262802;28;20029;-66
2023/05/29 03:54:02;;;;;;;18.20;5.27;;;;;;;8.65;95.68;102183.63;5263061;28;20028;-66
2023/05/29 03:56:35;;;;;;;20.00;5.37;;;;;;;8.73;96.11;102189.84;5262863;28;20036;-66
2023/05/29 03:59:06;;;;;;;21.00;5.43;;;;;;;8.67;96.01;102190.59;5262866;28;20388;-66
2023/05/29 04:01:37;;;;;;;19.50;6.23;;;;;;;8.64;96.25;102187.94;5261662;28;20086;-66
2023/05/29 04:04:09;;;;;;;21.70;5.50;;;;;;;8.58;96.57;102180.91;5262600;28;20036;-66
2023/05/29 04:06:41;;;;;;;21.50;5.17;;;;;;;8.61;96.90;102182.69;5262436;28;20061;-67
2023/05/29 04:09:12;;;;;;;17.47;5.33;;;;;;;8.64;96.72;102193.13;5262737;28;20125;-67
2023/05/29 04:11:44;;;;;;;26.60;6.17;;;;;;;8.60;96.88;102196.53;5262779;28;20029;-67
2023/05/29 04:14:15;;;;;;;21.23;5.68;;;;;;;8.67;96.96;102198.38;5262714;28;20040;-67
2023/05/29 04:16:47;;;;;;;21.30;4.97;;;;;;;8.68;96.74;102200.16;5262573;28;20504;-67
2023/05/29 04:19:18;;;;;;;23.27;6.30;;;;;;;8.70;97.21;102205.38;5262698;28;20025;-67
2023/05/29 04:21:50;;;;;;;22.67;6.13;;;;;;;8.65;96.82;102201.84;5262589;28;20061;-66
2023/05/29 04:24:21;;;;;;;18.63;5.80;;;;;;;8.68;97.29;102204.50;5262601;28;20445;-66
2023/05/29 04:26:52;;;;;;;19.00;5.93;;;;;;;8.68;97.21;102210.56;5262172;28;20090;-66
2023/05/29 04:29:24;;;;;;;34.73;7.47;;;;;;;8.67;97.05;102208.78;5260847;28;20472;-66
2023/05/29 04:31:55;;;;;;;25.80;5.80;;;;;;;8.72;97.33;102209.75;5262073;28;20082;-67
2023/05/29 04:34:27;;;;;;;18.17;5.77;;;;;;;8.72;97.21;102207.13;5262455;28;20083;-67
2023/05/29 04:36:58;;;;;;;26.47;4.87;;;;;;;8.71;96.94;102202.81;5294252;28;20060;-67
2023/05/29 04:39:30;;;;;;;23.47;5.87;;;;;;;8.73;96.87;102216.72;5261985;28;20040;-67
2023/05/29 04:42:01;;;;;;;19.23;5.37;;;;;;;8.76;96.62;102221.09;5262335;28;20472;-67
2023/05/29 04:44:32;;;;;;;30.17;6.83;;;;;;;8.71;96.70;102221.00;5262013;28;20028;-66
2023/05/29 04:47:04;;;;;;;23.23;5.13;;;;;;;8.78;96.54;102216.78;5262059;28;20029;-67
2023/05/29 04:49:35;;;;;;;21.80;4.97;;;;;;;8.86;96.34;102225.59;5262308;28;20033;-67
2023/05/29 04:52:07;;;;;;;23.67;5.77;;;;;;;8.92;96.32;102222.25;5261039;28;20044;-67
2023/05/29 04:54:38;;;;;;;19.10;4.78;;;;;;;8.94;95.86;102225.72;5261908;28;20090;-67
2023/05/29 04:57:10;;;;;;;17.77;4.73;;;;;;;9.05;95.82;102221.59;5262206;28;20027;-66
2023/05/29 04:59:41;;;;;;;25.13;6.37;;;;;;;9.04;95.13;102221.56;5262456;28;20487;-67
2023/05/29 05:02:13;;;;;;;21.43;5.10;;;;;;;9.04;94.77;102216.34;5261872;28;20159;-67
2023/05/29 05:04:45;;;;;;;18.60;4.67;;;;;;;9.16;94.96;102231.28;5262477;28;20597;-67
2023/05/29 05:07:16;;;;;;;23.13;5.05;;;;;;;9.21;94.71;102221.81;5261659;28;20028;-66
2023/05/29 05:09:48;;;;;;;17.53;5.07;;;;;;;9.23;93.75;102223.59;5262032;28;20029;-67
2023/05/29 05:12:19;;;;;;;22.40;5.33;;;;;;;9.28;93.71;102221.94;5262019;28;20029;-67
2023/05/29 05:14:50;;;;;;;26.10;6.20;;;;;;;9.34;93.00;102217.69;5260736;28;20026;-67
2023/05/29 05:17:22;;;;;;;18.30;5.77;;;;;;;9.38;92.37;102222.09;5262125;28;20057;-67
2023/05/29 05:19:53;;;;;;;24.40;6.00;;;;;;;9.53;91.85;102226.66;5260826;28;20033;-67
2023/05/29 05:22:25;;;;;;;19.87;4.90;;;;;;;9.51;91.05;102230.97;5262027;28;20488;-66
2023/05/29 05:24:57;;;;;;;16.27;5.07;;;;;;;9.55;90.50;102232.78;5261929;28;20055;-66
2023/05/29 05:27:29;;;;;;;17.85;4.85;;;;;;;9.65;90.29;102239.84;5261850;28;20480;-66
2023/05/29 05:30:00;;;;;;;14.07;5.33;;;;;;;9.67;90.22;102236.41;5260527;28;20028;-66
2023/05/29 05:32:32;;;;;;;19.87;4.80;;;;;;;9.78;89.91;102251.31;5261892;28;20033;-67
2023/05/29 05:35:03;;;;;;;18.50;4.80;;;;;;;9.89;90.07;102261.91;5261528;28;20091;-66
2023/05/29 05:37:35;;;;;;;21.67;6.27;;;;;;;9.95;89.00;102255.03;5261254;28;20037;-66
2023/05/29 05:40:07;;;;;;;21.47;4.83;;;;;;;9.95;88.04;102254.13;5261842;28;20029;-67
2023/05/29 05:42:39;;;;;;;19.33;4.22;;;;;;;10.05;87.96;102258.63;5264623;28;20033;-67
2023/05/29 05:45:11;;;;;;;27.40;7.07;;;;;;;10.09;87.34;102263.00;5265655;28;20072;-67
2023/05/29 05:47:42;;;;;;;21.23;6.23;;;;;;;10.15;87.33;102252.69;5265361;28;20065;-67
2023/05/29 05:50:13;;;;;;;19.83;5.30;;;;;;;10.22;86.62;102262.34;5265667;28;20410;-66
2023/05/29 05:52:45;;;;;;;23.80;6.80;;;;;;;10.30;86.55;102249.38;5265501;28;20140;-67
2023/05/29 05:55:16;;;;;;;21.70;5.23;;;;;;;10.33;85.61;102256.41;5265478;28;20036;-67
2023/05/29 05:57:48;;;;;;;28.33;4.87;;;;;;;10.45;86.25;102247.84;5265364;28;20111;-68
2023/05/29 06:00:19;;;;;;;20.73;5.13;;;;;;;10.40;84.76;102248.69;5265386;28;20052;-68
2023/05/29 06:02:51;;;;;;;25.30;6.73;;;;;;;10.53;85.72;102248.81;5265212;28;20035;-67
2023/05/29 06:05:22;;;;;;;21.17;6.43;;;;;;;10.66;85.25;102237.66;5264786;28;20037;-67
2023/05/29 06:07:54;;;;;;;16.87;4.70;;;;;;;10.66;83.16;102239.38;5265513;28;20496;-67
2023/05/29 06:10:25;;;;;;;23.60;6.60;;;;;;;10.75;82.23;102239.47;5265177;28;20036;-67
2023/05/29 06:12:57;;;;;;;23.03;4.77;;;;;;;10.80;81.87;102244.72;5264832;28;20029;-68
2023/05/29 06:15:28;;;;;;;22.57;5.87;;;;;;;10.80;81.04;102256.03;5264814;28;20361;-68
2023/05/29 06:18:00;;;;;;;21.40;5.23;;;;;;;10.86;80.95;102263.91;5264758;28;20078;-67
2023/05/29 06:20:31;;;;;;;15.23;4.57;;;;;;;10.87;80.58;102263.06;5265068;28;20033;-68
2023/05/29 06:23:03;;;;;;;21.33;5.17;;;;;;;10.92;81.25;102255.28;5264655;28;20352;-68
2023/05/29 06:25:34;;;;;;;18.17;4.40;;;;;;;11.05;80.33;102271.94;5264900;28;20052;-65
2023/05/29 06:28:06;;;;;;;22.43;4.57;;;;;;;11.18;80.40;102273.78;5264796;28;20078;-67
2023/05/29 06:30:38;;;;;;;14.73;3.83;;;;;;;11.29;79.38;102276.50;5264757;28;20052;-67
2023/05/29 06:33:10;;;;;;;20.13;5.75;;;;;;;11.22;77.02;102274.69;5264639;28;20361;-67
2023/05/29 06:35:41;;;;;;;17.40;4.97;;;;;;;11.31;77.09;102283.44;5264162;28;20033;-67
2023/05/29 06:38:13;;;;;;;21.90;4.97;;;;;;;11.34;76.36;102266.09;5264513;28;20385;-67
2023/05/29 06:40:45;;;;;;;12.65;4.25;;;;;;;11.39;76.53;102277.44;5264549;28;20037;-67
2023/05/29 06:43:16;;;;;;;23.00;5.20;;;;;;;11.51;75.54;102287.94;5264154;28;20447;-67
2023/05/29 06:45:47;;;;;;;21.53;5.50;;;;;;;11.52;75.87;102276.66;5263127;28;20131;-68
2023/05/29 06:48:19;;;;;;;22.47;5.93;;;;;;;11.61;75.34;102287.19;5256544;28;20062;-68
2023/05/29 06:50:51;;;;;;;21.20;4.97;;;;;;;11.78;74.20;102291.63;5253543;28;20036;-68
2023/05/29 06:53:22;;;;;;;15.17;4.40;;;;;;;11.79;74.33;102282.94;5283453;28;20310;-68
2023/05/29 06:55:53;;;;;;;18.93;4.43;;;;;;;11.86;73.20;102293.44;5262842;28;20040;-68
2023/05/29 06:58:25;;;;;;;19.77;4.30;;;;;;;11.96;72.24;102288.28;5263514;28;20484;-68
2023/05/29 07:00:57;;;;;;;14.90;4.13;;;;;;;12.02;72.13;102289.19;5262447;28;20036;-68
2023/05/29 07:03:29;;;;;;;16.23;5.00;;;;;;;12.12;72.31;102282.25;5262279;28;20115;-69
2023/05/29 07:06:00;;;;;;;15.45;3.85;;;;;;;12.10;71.80;102294.47;5261750;28;20040;-69
2023/05/29 07:08:31;;;;;;;25.03;6.60;;;;;;;12.21;72.73;102287.53;5263157;28;20112;-69
2023/05/29 07:11:03;;;;;;;12.57;4.57;;;;;;;12.34;71.79;102296.31;5261062;28;20035;-68
2023/05/29 07:13:35;;;;;;;15.27;3.57;;;;;;;12.45;70.23;102298.13;5262460;28;20107;-68
2023/05/29 07:16:06;;;;;;;13.38;4.30;;;;;;;12.57;69.66;102283.34;5255231;28;20060;-68
2023/05/29 07:18:38;;;;;;;18.90;4.53;;;;;;;12.74;69.23;102293.81;5262959;28;20159;-68
2023/05/29 07:21:10;;;;;;;11.43;4.03;;;;;;;12.91;69.46;102288.66;5262018;28;20361;-68
2023/05/29 07:23:42;;;;;;;14.52;3.85;;;;;;;13.09;69.87;102289.53;5262551;28;20083;-68
2023/05/29 07:26:13;;;;;;;22.27;4.77;;;;;;;13.32;67.58;102287.81;5261996;28;20044;-69
2023/05/29 07:28:44;;;;;;;18.47;5.10;;;;;;;13.23;66.73;102293.00;5262047;28;20532;-68
2023/05/29 07:31:16;;;;;;;16.57;4.30;;;;;;;13.16;65.52;102291.28;5262419;28;20048;-68
2023/05/29 07:33:48;;;;;;;15.17;3.97;;;;;;;13.30;66.12;102293.91;5263354;28;20036;-67
2023/05/29 07:36:20;;;;;;;14.77;4.88;;;;;;;13.37;64.63;102287.81;5258423;28;20471;-68
2023/05/29 07:38:53;;;;;;;16.73;5.10;;;;;;;13.37;64.27;102293.06;5262578;28;20078;-68
2023/05/29 07:41:26;;;;;;;14.40;4.10;;;;;;;13.52;65.42;102296.53;5262116;28;20040;-69
2023/05/29 07:43:57;;;;;;;14.90;4.50;;;;;;;13.61;64.43;102302.66;5261180;28;20075;-68
2023/05/29 07:46:29;;;;;;;17.80;4.40;;;;;;;13.46;63.11;102305.28;5261676;28;20120;-68
2023/05/29 07:49:00;;;;;;;13.00;3.70;;;;;;;13.63;63.46;102313.13;5262453;28;20033;-68
2023/05/29 07:51:32;;;;;;;14.50;4.57;;;;;;;13.65;61.80;102304.41;5261041;28;20035;-68
2023/05/29 07:54:03;;;;;;;12.60;3.90;;;;;;;13.93;61.92;102312.19;5263083;28;20342;-69
2023/05/29 07:56:35;;;;;;;19.43;4.47;;;;;;;14.21;61.92;102309.50;5262446;28;20491;-69
2023/05/29 07:59:08;;;;;;;15.03;4.30;;;;;;;14.27;61.03;102319.09;5262587;28;20025;-69
2023/05/29 08:01:40;;;;;;;14.65;3.78;;;;;;;14.05;59.84;102311.28;5262136;28;20271;-68
2023/05/29 08:04:11;;;;;;;20.13;5.20;;;;;;;14.20;60.33;102316.50;5262491;28;20477;-69
2023/05/29 08:06:43;;;;;;;11.50;3.60;;;;;;;14.13;59.63;102324.38;5262469;28;20458;-68
2023/05/29 08:09:14;;;;;;;12.18;3.42;;;;;;;14.08;61.52;102319.16;5262803;28;20029;-69
2023/05/29 08:11:46;;;;;;;13.13;4.03;;;;;;;14.10;59.10;102313.91;5262357;28;20155;-68
2023/05/29 08:14:17;;;;;;;18.83;4.23;;;;;;;14.41;60.80;102317.31;5262668;28;20033;-69
2023/05/29 08:16:49;;;;;;;14.10;4.33;;;;;;;14.63;60.69;102315.47;5261997;28;20052;-68
2023/05/29 08:19:20;;;;;;;15.87;3.20;;;;;;;14.90;59.09;102319.69;5262771;28;20116;-68
2023/05/29 08:21:51;;;;;;;13.97;4.40;;;;;;;14.90;57.96;102324.94;5262587;28;20063;-70
2023/05/29 08:24:23;;;;;;;12.07;3.67;;;;;;;14.89;56.23;102311.81;5262188;28;20040;-68
2023/05/29 08:26:54;;;;;;;16.63;4.53;;;;;;;14.95;56.21;102317.03;5262398;28;20036;-69
2023/05/29 08:29:25;;;;;;;13.80;4.27;;;;;;;15.09;56.56;102327.44;5261144;28;20033;-68
2023/05/29 08:31:57;;;;;;;15.17;4.67;;;;;;;15.11;56.59;102317.78;5262084;28;20345;-68
2023/05/29 08:34:28;;;;;;;13.43;3.87;;;;;;;15.16;55.10;102326.50;5262264;28;20037;-68
2023/05/29 08:37:00;;;;;;;15.23;4.57;;;;;;;15.29;55.31;102328.19;5261783;28;20045;-68
2023/05/29 08:39:31;;;;;;;12.57;3.90;;;;;;;15.29;55.65;102322.03;5262241;28;20033;-69
2023/05/29 08:42:13;;;;;;;13.13;3.90;;;;;;;15.46;55.23;102328.03;5261662;28;20105;-69
2023/05/29 08:44:47;;;;;;;13.93;4.23;;;;;;;15.43;55.19;102325.44;5256175;28;20028;-69
2023/05/29 08:47:20;;;;;;;14.98;3.95;;;;;;;15.42;55.33;102325.44;5258127;28;20271;-69
2023/05/29 08:49:53;;;;;;;13.15;4.15;;;;;;;15.60;56.70;102327.03;5259915;28;20033;-68
2023/05/29 08:52:26;;;;;;;16.00;4.15;;;;;;;15.58;54.83;102323.56;5260282;28;20183;-69
2023/05/29 08:55:00;;;;;;;;;;;;;;;15.95;54.38;102334.59;5261125;28;20037;-69
2023/05/29 08:57:32;;;;;;;12.02;3.75;;;;;;;15.67;54.08;102332.22;5260719;28;19917;-68
2023/05/29 09:00:12;;;;;;;15.50;3.97;;;;;;;15.75;53.39;102336.56;5258810;28;20035;-69
2023/05/29 09:02:43;;;;;;;9.73;3.80;;;;;;;15.69;53.07;102335.69;5261410;28;20032;-69
2023/05/29 09:05:15;;;;;;;17.73;4.60;;;;;;;15.84;53.11;102341.72;5260614;28;20029;-68
2023/05/29 09:07:49;;;;;;;13.13;3.70;;;;;;;16.21;53.12;102347.50;5259785;28;20032;-69
2023/05/29 09:10:22;;;;;;;13.43;3.97;;;;;;;16.23;52.30;102350.97;5260950;28;20431;-69
2023/05/29 09:12:53;;;;;;;11.70;3.67;;;;;;;16.12;52.11;102346.72;5260101;28;20025;-68
2023/05/29 09:15:24;;;;;;;13.63;3.00;;;;;;;16.32;53.04;102341.22;5258864;28;20503;-68
2023/05/29 09:17:57;;;;;;;17.93;4.27;;;;;;;16.44;52.38;102343.72;5264633;28;20060;-68
2023/05/29 09:20:30;;;;;;;14.65;3.88;;;;;;;16.53;52.04;102345.34;5264718;28;20131;-68
2023/05/29 09:23:07;;;;;;;12.30;4.00;;;;;;;16.69;50.38;102341.63;5263857;28;20068;-69
2023/05/29 09:25:42;;;;;;;9.57;3.28;;;;;;;16.48;49.60;102344.53;5264887;28;20039;-68
2023/05/29 09:28:13;;;;;;;13.32;3.92;;;;;;;16.44;49.66;102342.81;5265222;28;20448;-69
2023/05/29 09:30:49;;;;;;;11.90;3.37;;;;;;;16.88;51.15;102341.41;5282306;28;20038;-68
2023/05/29 09:33:21;;;;;;;12.43;3.28;;;;;;;17.04;47.81;102342.06;5261551;28;20472;-67
2023/05/29 09:35:52;;;;;;;14.23;4.00;;;;;;;17.26;47.58;102329.44;5264384;28;20036;-68
2023/05/29 09:38:23;;;;;;;11.37;3.73;;;;;;;17.03;47.50;102328.00;5263335;28;20036;-68
2023/05/29 09:41:00;;;;;;;13.63;4.10;;;;;;;17.40;48.20;102331.81;5263822;28;20481;-68
2023/05/29 09:43:32;;;;;;;11.40;3.67;;;;;;;17.70;47.73;102319.88;5263960;28;20124;-68
2023/05/29 09:46:08;;;;;;;14.85;4.22;;;;;;;18.30;49.13;102331.06;5263880;28;20048;-68
2023/05/29 09:48:42;;;;;;;15.80;4.25;;;;;;;18.54;47.29;102325.25;5264416;28;20091;-69
2023/05/29 09:51:23;;;;;;;11.90;4.18;;;;;;;18.01;44.76;102330.72;5264528;28;20037;-68
2023/05/29 09:53:56;;;;;;;10.95;3.75;;;;;;;18.07;45.80;102329.75;5264080;28;20037;-69
2023/05/29 09:56:29;;;;;;;13.02;3.67;;;;;;;18.29;44.31;102335.50;5264743;28;20037;-68
2023/05/29 09:59:01;;;;;;;12.45;3.67;;;;;;;18.57;43.40;102338.41;5262945;28;20074;-68
2023/05/29 10:01:32;;;;;;;11.90;3.95;;;;;;;18.79;44.09;102330.03;5296920;28;20104;-68
2023/05/29 10:04:04;;;;;;;11.17;3.87;;;;;;;19.04;42.96;102326.84;5263423;28;20504;-68
2023/05/29 10:06:44;;;;;;;13.80;4.37;;;;;;;19.33;41.78;102330.56;5264485;28;20060;-68
2023/05/29 10:09:19;;;;;;;11.85;4.18;;;;;;;20.28;41.62;102335.94;5264529;28;20067;-69
2023/05/29 10:11:53;;;;;;;12.45;3.90;;;;;;;20.91;39.55;102330.56;5263311;28;20025;-68
2023/05/29 10:14:25;;;;;;;9.57;3.45;;;;;;;21.68;38.54;102331.56;5262786;28;20036;-69
2023/05/29 10:16:59;;;;;;;9.63;3.67;;;;;;;21.84;37.97;102331.88;5261362;28;20029;-69
2023/05/29 10:19:32;;;;;;;14.15;4.40;;;;;;;21.78;36.67;102328.59;5264063;28;20037;-69
2023/05/29 10:22:05;;;;;;;9.77;3.38;;;;;;;21.94;39.34;102315.63;5264851;28;20437;-68
2023/05/29 10:24:37;;;;;;;11.60;4.45;;;;;;;22.80;39.03;102328.34;5263280;28;20039;-68
2023/05/29 10:27:09;;;;;;;13.80;4.38;;;;;;;23.22;34.70;102321.38;5264000;28;20374;-68
2023/05/29 10:29:53;;;;;;;10.50;4.03;;;;;;;23.21;35.01;102327.63;5262821;28;20029;-68
2023/05/29 10:32:45;;;;;;;14.48;4.40;;;;;;;23.53;34.58;102312.94;5264346;28;20119;-67
2023/05/29 10:35:20;;;;;;;10.25;3.83;;;;;;;23.19;34.78;102310.84;5263956;28;20101;-67
2023/05/29 10:37:57;;;;;;;9.15;3.60;;;;;;;23.42;34.24;102316.06;5262650;28;20037;-69
2023/05/29 10:40:28;;;;;;;10.98;3.60;;;;;;;23.73;33.36;102314.75;5263614;28;20032;-68
2023/05/29 10:43:00;;;;;;;12.13;4.07;;;;;;;23.76;33.67;102316.38;5263822;28;20029;-69
2023/05/29 10:45:31;;;;;;;10.47;3.83;;;;;;;23.29;33.83;102309.53;5263814;28;20025;-68
2023/05/29 10:48:11;;;;;;;11.90;4.30;;;;;;;23.60;34.54;102319.75;5264330;28;20032;-68
2023/05/29 10:50:45;;;;;;;11.30;3.05;;;;;;;24.07;35.77;102313.25;5263555;28;20082;-68
2023/05/29 10:53:22;;;;;;;11.38;4.10;;;;;;;24.44;31.83;102319.56;5263986;28;20033;-68
2023/05/29 10:55:54;;;;;;;10.63;3.40;;;;;;;24.30;31.65;102319.34;5263560;28;20031;-70
2023/05/29 10:58:26;;;;;;;7.53;3.17;;;;;;;23.97;32.76;102318.16;5263293;28;20045;-68
2023/05/29 11:00:58;;;;;;;9.13;3.60;;;;;;;24.09;32.56;102315.84;5264278;28;20116;-67
2023/05/29 11:03:31;;;;;;;9.27;3.78;;;;;;;24.26;35.01;102307.06;5263360;28;20078;-69
2023/05/29 11:06:16;;;;;;;9.18;3.33;;;;;;;25.06;30.88;102305.94;5262465;28;20029;-69
2023/05/29 11:08:53;;;;;;;12.63;3.60;;;;;;;24.79;31.48;102305.50;5262203;28;20130;-70
2023/05/29 11:11:36;;;;;;;9.15;3.55;;;;;;;25.32;32.17;102301.97;5263836;28;20041;-68
2023/05/29 11:14:07;;;;;;;10.63;4.00;;;;;;;24.52;32.02;102288.06;5262823;28;20094;-68
2023/05/29 11:16:39;;;;;;;9.30;3.40;;;;;;;24.91;32.31;102296.91;5263753;28;20037;-67
2023/05/29 11:19:12;;;;;;;12.32;4.10;;;;;;;25.09;31.91;102290.63;5262585;28;20053;-68
2023/05/29 11:21:57;;;;;;;11.65;4.05;;;;;;;25.11;30.58;102290.53;5263789;28;20052;-68
2023/05/29 11:24:29;;;;;;;10.55;3.30;;;;;;;25.54;33.33;102290.19;5262747;28;20033;-68
2023/05/29 11:27:06;;;;;;;;;;;;;;;27.42;30.11;102293.13;5262728;28;20056;-69
2023/05/29 11:29:37;;;;;;;11.80;3.90;;;;;;;25.60;30.48;102295.19;5263001;28;19917;-69
2023/05/29 11:32:14;;;;;;;10.27;4.07;;;;;;;25.70;29.71;102288.44;5263692;28;20175;-69
2023/05/29 11:34:47;;;;;;;10.73;4.03;;;;;;;25.75;30.93;102281.03;5262493;28;20076;-68
2023/05/29 11:37:19;;;;;;;10.68;3.28;;;;;;;26.66;31.03;102278.78;5261322;28;20167;-67
2023/05/29 11:39:50;;;;;;;;;;;;;;;28.72;28.44;102292.09;5262428;28;20033;-69
2023/05/29 11:42:22;;;;;;;13.17;4.60;;;;;;;27.17;28.12;102293.69;5263331;28;19912;-68
2023/05/29 11:44:53;;;;;;;12.00;4.30;;;;;;;26.69;28.38;102281.25;5262334;28;20059;-68
2023/05/29 11:47:25;;;;;;;10.75;3.63;;;;;;;27.13;28.04;102287.66;5263366;28;20047;-68